»·PEaware :: SKY45 KPRC-KHII

SKY45 :: KPRC-KHII

FLIGHT INFORMATION

Flight Status: Arrived
Operator:
Sky High Charters
More flights by this operator :: More flights under this callsign
Pilot: Tomas N. (42449)
Aircraft: CIRRUS VISIONJET
(SF50)
More flights by this aircraft type
Origin: KPRC Love
United States
Destination: KHII Lake Havasu City
United States
More flights between these airports :: More routes between these airports
Route: WNSKI2 MUMTE V12 EED
File this flight plan on PilotEdge
Remarks: SKY-8 Rating
Altitude:
(Current/Filed)
18,000ft
Speed:
(Current/Filed)
300kts
Departed: 13-Apr-23 12:19 PM
Arrived: 13-Apr-23 01:01 PM
Distance/Time
Traveled:
96nm/0:42
Distance/Time
To Go:
Arrived

Flight Plot

Page will automatically refresh every two minutes.

Flight plan parsing failed; only flown route is shown


Map Options




Map Legend


Flown Route
Filed Route
Departure Airport
Arrival Airport
Navaid (VOR, NDB)
Fix

Horizontal Profiles

Position Reports

Time Latitude Longitude Heading Altitude Ground
Speed
13-Apr-23 12:03 34.653855 -112.422586 130 4992ft 0kts
13-Apr-23 12:04 34.653855 -112.422586 130 4992ft 0kts
13-Apr-23 12:05 34.653855 -112.422586 130 4992ft 0kts
13-Apr-23 12:06 34.653855 -112.422586 130 4992ft 0kts
13-Apr-23 12:08 34.653855 -112.422586 130 4992ft 0kts
13-Apr-23 12:09 34.653855 -112.422586 130 4992ft 0kts
13-Apr-23 12:10 34.653855 -112.422586 130 4992ft 0kts
13-Apr-23 12:11 34.653855 -112.422586 130 4992ft 0kts
13-Apr-23 12:12 34.654455 -112.421541 43 4990ft 13kts
13-Apr-23 12:13 34.656486 -112.418813 41 4978ft 7kts
13-Apr-23 12:14 34.658985 -112.416147 41 4962ft 15kts
13-Apr-23 12:15 34.661136 -112.413884 40 4952ft 9kts
13-Apr-23 12:16 34.662704 -112.412163 120 4945ft 0kts
13-Apr-23 12:17 34.662704 -112.412163 120 4945ft 0kts
13-Apr-23 12:18 34.661807 -112.411805 201 4948ft 16kts
13-Apr-23 12:19 34.643267 -112.430929 216 5916ft 125kts
13-Apr-23 12:20 34.634060 -112.402529 87 8468ft 158kts
13-Apr-23 12:21 34.610983 -112.354499 131 10574ft 184kts
13-Apr-23 12:22 34.578828 -112.309121 131 12443ft 175kts
13-Apr-23 12:23 34.541710 -112.264313 174 14801ft 180kts
13-Apr-23 12:24 34.503100 -112.297535 227 17175ft 180kts
13-Apr-23 12:25 34.476933 -112.349470 238 19249ft 184kts
13-Apr-23 12:26 34.458096 -112.415897 252 19831ft 250kts
13-Apr-23 12:27 34.453171 -112.503806 269 19825ft 270kts
13-Apr-23 12:28 34.470509 -112.593760 286 19825ft 279kts
13-Apr-23 12:29 34.514091 -112.680239 306 19828ft 320kts
13-Apr-23 12:30 34.585632 -112.749197 329 19827ft 339kts
13-Apr-23 12:31 34.676274 -112.782946 352 19828ft 347kts
13-Apr-23 12:32 34.728397 -112.839925 238 19846ft 304kts
13-Apr-23 12:32 34.719298 -112.924796 267 19828ft 318kts
13-Apr-23 12:33 34.723437 -113.032225 268 19827ft 320kts
13-Apr-23 12:35 34.728010 -113.158268 267 19812ft 321kts
13-Apr-23 12:36 34.731527 -113.266733 267 19795ft 321kts
13-Apr-23 12:36 34.734510 -113.356948 267 19791ft 321kts
13-Apr-23 12:37 34.738018 -113.465423 267 19791ft 321kts
13-Apr-23 12:38 34.741423 -113.573868 267 19790ft 321kts
13-Apr-23 12:39 34.744735 -113.682149 267 19788ft 312kts
13-Apr-23 12:40 34.747703 -113.783386 268 16754ft 305kts
13-Apr-23 12:41 34.750712 -113.887791 269 14727ft 315kts
13-Apr-23 12:42 34.753679 -113.992937 270 12935ft 310kts
13-Apr-23 12:43 34.756505 -114.096473 270 11742ft 303kts
13-Apr-23 12:44 34.759219 -114.199046 270 11739ft 301kts
13-Apr-23 12:45 34.761822 -114.287022 270 11733ft 245kts
13-Apr-23 12:46 34.764388 -114.369442 270 11730ft 232kts
13-Apr-23 12:47 34.766846 -114.440414 270 11726ft 196kts
13-Apr-23 12:48 34.773153 -114.505959 309 11695ft 201kts
13-Apr-23 12:49 34.825625 -114.525536 348 10238ft 196kts
13-Apr-23 12:50 34.878616 -114.533897 31 8305ft 193kts
13-Apr-23 12:51 34.866610 -114.496737 167 6372ft 157kts
13-Apr-23 12:52 34.824684 -114.486539 168 4724ft 148kts
13-Apr-23 12:53 34.783106 -114.477311 169 4991ft 155kts
13-Apr-23 12:54 34.740313 -114.471812 176 4767ft 156kts
13-Apr-23 12:55 34.699469 -114.459447 148 3879ft 153kts
13-Apr-23 12:56 34.665576 -114.432705 148 2992ft 141kts
13-Apr-23 12:57 34.633374 -114.407088 148 2154ft 136kts
13-Apr-23 12:58 34.603470 -114.381018 147 1388ft 118kts
13-Apr-23 12:59 34.580585 -114.364959 153 795ft 86kts
13-Apr-23 13:00 34.574675 -114.362113 326 752ft 8kts
13-Apr-23 13:01 34.578759 -114.365040 330 747ft 18kts
13-Apr-23 13:02 34.580043 -114.365783 21 750ft 0kts
13-Apr-23 13:03 34.580043 -114.365783 21 750ft 0kts
13-Apr-23 13:04 34.580043 -114.365783 21 750ft 0kts
13-Apr-23 13:05 34.580043 -114.365783 21 750ft 0kts
13-Apr-23 13:06 34.580043 -114.365783 21 750ft 0kts
13-Apr-23 13:07 34.580043 -114.365783 21 750ft 0kts
13-Apr-23 13:08 34.580043 -114.365783 21 750ft 0kts
13-Apr-23 13:09 34.580043 -114.365783 21 750ft 0kts
13-Apr-23 13:10 34.580043 -114.365783 21 750ft 0kts
13-Apr-23 13:11 34.580043 -114.365783 21 750ft 0kts
13-Apr-23 13:12 34.580043 -114.365783 21 750ft 0kts
13-Apr-23 13:13 34.580043 -114.365783 21 750ft 0kts
13-Apr-23 13:14 34.580043 -114.365783 21 750ft 0kts

Navigation Log

Ident Type
Flight plan parsing failed, navigation log unavailable